sensor_id;sensor_type;location;lat;lon;timestamp;pressure;altitude;pressure_sealevel;temperature
77355;BMP280;66422;51.202;19.936;2023-04-28T00:14:52;99883.75;;;2.32
77355;BMP280;66422;51.202;19.936;2023-04-28T00:30:12;99889.90;;;2.28
77355;BMP280;66422;51.202;19.936;2023-04-28T00:45:32;99875.13;;;2.49
77355;BMP280;66422;51.202;19.936;2023-04-28T01:00:51;99881.29;;;3.05
77355;BMP280;66422;51.202;19.936;2023-04-28T01:16:11;99896.77;;;3.31
77355;BMP280;66422;51.202;19.936;2023-04-28T01:31:31;99892.60;;;3.25
77355;BMP280;66422;51.202;19.936;2023-04-28T01:46:51;99895.27;;;2.94
77355;BMP280;66422;51.202;19.936;2023-04-28T02:02:14;99895.91;;;2.89
77355;BMP280;66422;51.202;19.936;2023-04-28T02:17:35;99892.84;;;2.56
77355;BMP280;66422;51.202;19.936;2023-04-28T02:32:54;99896.23;;;2.82
77355;BMP280;66422;51.202;19.936;2023-04-28T02:48:14;99902.46;;;2.90
77355;BMP280;66422;51.202;19.936;2023-04-28T03:03:34;99906.54;;;3.18
77355;BMP280;66422;51.202;19.936;2023-04-28T03:18:54;99904.46;;;3.01
77355;BMP280;66422;51.202;19.936;2023-04-28T03:34:14;99898.88;;;2.54
77355;BMP280;66422;51.202;19.936;2023-04-28T03:49:34;99900.48;;;2.13
77355;BMP280;66422;51.202;19.936;2023-04-28T04:04:55;99895.68;;;1.51
77355;BMP280;66422;51.202;19.936;2023-04-28T04:20:15;99898.27;;;2.45
77355;BMP280;66422;51.202;19.936;2023-04-28T04:35:35;99916.05;;;3.41
77355;BMP280;66422;51.202;19.936;2023-04-28T04:50:55;99920.45;;;4.03
77355;BMP280;66422;51.202;19.936;2023-04-28T05:06:15;99928.09;;;4.66
77355;BMP280;66422;51.202;19.936;2023-04-28T05:21:37;99931.54;;;4.97
77355;BMP280;66422;51.202;19.936;2023-04-28T05:36:58;99932.61;;;5.85
77355;BMP280;66422;51.202;19.936;2023-04-28T05:52:19;99944.23;;;7.80
77355;BMP280;66422;51.202;19.936;2023-04-28T06:07:39;99995.87;;;12.31
77355;BMP280;66422;51.202;19.936;2023-04-28T06:22:59;99973.17;;;10.31
77355;BMP280;66422;51.202;19.936;2023-04-28T06:38:19;99976.61;;;11.49
77355;BMP280;66422;51.202;19.936;2023-04-28T06:53:39;99938.88;;;11.37
77355;BMP280;66422;51.202;19.936;2023-04-28T07:09:00;99932.09;;;12.15
77355;BMP280;66422;51.202;19.936;2023-04-28T07:24:20;99918.98;;;13.33
77355;BMP280;66422;51.202;19.936;2023-04-28T07:39:41;99904.83;;;13.27
77355;BMP280;66422;51.202;19.936;2023-04-28T07:55:01;99904.39;;;13.72
77355;BMP280;66422;51.202;19.936;2023-04-28T08:10:21;99885.59;;;13.93
77355;BMP280;66422;51.202;19.936;2023-04-28T08:25:41;99878.15;;;14.72
77355;BMP280;66422;51.202;19.936;2023-04-28T08:41:03;99867.71;;;13.93
77355;BMP280;66422;51.202;19.936;2023-04-28T08:56:25;99850.27;;;14.83
77355;BMP280;66422;51.202;19.936;2023-04-28T09:27:14;99822.13;;;15.32
77355;BMP280;66422;51.202;19.936;2023-04-28T09:58:01;99789.45;;;16.70
77355;BMP280;66422;51.202;19.936;2023-04-28T10:13:24;99755.37;;;15.29
77355;BMP280;66422;51.202;19.936;2023-04-28T10:28:48;99737.83;;;16.62
77355;BMP280;66422;51.202;19.936;2023-04-28T10:59:46;99719.14;;;16.38
77355;BMP280;66422;51.202;19.936;2023-04-28T11:15:12;99692.97;;;17.23
77355;BMP280;66422;51.202;19.936;2023-04-28T11:30:32;99681.48;;;17.46
77355;BMP280;66422;51.202;19.936;2023-04-28T11:45:52;99657.31;;;16.89
77355;BMP280;66422;51.202;19.936;2023-04-28T12:01:12;99649.33;;;17.34
77355;BMP280;66422;51.202;19.936;2023-04-28T12:16:36;99638.38;;;18.22
77355;BMP280;66422;51.202;19.936;2023-04-28T12:31:57;99630.17;;;17.75
77355;BMP280;66422;51.202;19.936;2023-04-28T12:47:17;99597.87;;;17.18
77355;BMP280;66422;51.202;19.936;2023-04-28T13:02:37;99586.98;;;18.46
77355;BMP280;66422;51.202;19.936;2023-04-28T13:17:58;99572.80;;;18.52
77355;BMP280;66422;51.202;19.936;2023-04-28T13:33:18;99558.94;;;18.68
77355;BMP280;66422;51.202;19.936;2023-04-28T13:48:38;99533.80;;;18.18
77355;BMP280;66422;51.202;19.936;2023-04-28T14:03:58;99522.04;;;17.54
77355;BMP280;66422;51.202;19.936;2023-04-28T14:19:18;99500.80;;;17.31
77355;BMP280;66422;51.202;19.936;2023-04-28T14:34:38;99488.55;;;17.68
77355;BMP280;66422;51.202;19.936;2023-04-28T14:49:58;99473.04;;;17.72
77355;BMP280;66422;51.202;19.936;2023-04-28T15:05:18;99461.52;;;17.69
77355;BMP280;66422;51.202;19.936;2023-04-28T15:20:38;99463.71;;;17.75
77355;BMP280;66422;51.202;19.936;2023-04-28T15:35:57;99453.29;;;17.98
77355;BMP280;66422;51.202;19.936;2023-04-28T15:51:17;99442.58;;;17.75
77355;BMP280;66422;51.202;19.936;2023-04-28T16:06:36;99434.32;;;16.87
77355;BMP280;66422;51.202;19.936;2023-04-28T16:21:56;99426.45;;;16.77
77355;BMP280;66422;51.202;19.936;2023-04-28T16:37:16;99416.52;;;16.26
77355;BMP280;66422;51.202;19.936;2023-04-28T16:52:36;99401.91;;;15.85
77355;BMP280;66422;51.202;19.936;2023-04-28T17:07:56;99380.17;;;16.38
77355;BMP280;66422;51.202;19.936;2023-04-28T17:23:17;99371.26;;;15.41
77355;BMP280;66422;51.202;19.936;2023-04-28T17:38:37;99361.01;;;14.50
77355;BMP280;66422;51.202;19.936;2023-04-28T17:53:58;99364.44;;;13.72
77355;BMP280;66422;51.202;19.936;2023-04-28T18:09:17;99357.50;;;12.99
77355;BMP280;66422;51.202;19.936;2023-04-28T18:24:37;99360.56;;;12.26
77355;BMP280;66422;51.202;19.936;2023-04-28T18:39:56;99361.97;;;11.94
77355;BMP280;66422;51.202;19.936;2023-04-28T18:55:16;99360.71;;;11.75
77355;BMP280;66422;51.202;19.936;2023-04-28T19:10:36;99366.25;;;11.48
77355;BMP280;66422;51.202;19.936;2023-04-28T19:25:58;99368.83;;;11.23
77355;BMP280;66422;51.202;19.936;2023-04-28T19:41:18;99366.43;;;11.06
77355;BMP280;66422;51.202;19.936;2023-04-28T19:56:39;99364.70;;;10.43
77355;BMP280;66422;51.202;19.936;2023-04-28T20:11:59;99363.91;;;10.01
77355;BMP280;66422;51.202;19.936;2023-04-28T20:27:20;99367.22;;;9.94
77355;BMP280;66422;51.202;19.936;2023-04-28T20:42:40;99366.65;;;9.73
77355;BMP280;66422;51.202;19.936;2023-04-28T20:58:00;99359.76;;;10.04
77355;BMP280;66422;51.202;19.936;2023-04-28T21:13:20;99354.96;;;10.18
77355;BMP280;66422;51.202;19.936;2023-04-28T21:28:39;99358.48;;;10.30
77355;BMP280;66422;51.202;19.936;2023-04-28T21:43:59;99356.36;;;10.10
77355;BMP280;66422;51.202;19.936;2023-04-28T21:59:19;99348.71;;;10.07
77355;BMP280;66422;51.202;19.936;2023-04-28T22:14:38;99349.88;;;10.18
77355;BMP280;66422;51.202;19.936;2023-04-28T22:29:58;99353.61;;;9.79
77355;BMP280;66422;51.202;19.936;2023-04-28T22:45:17;99348.76;;;9.42
77355;BMP280;66422;51.202;19.936;2023-04-28T23:00:37;99337.89;;;9.25
77355;BMP280;66422;51.202;19.936;2023-04-28T23:15:57;99330.01;;;8.60
77355;BMP280;66422;51.202;19.936;2023-04-28T23:31:18;99318.31;;;8.68
77355;BMP280;66422;51.202;19.936;2023-04-28T23:46:37;99298.02;;;8.57
